createdAt,value
2019-04-13T00:00:27.447Z,4.55
2019-04-13T00:02:30.776Z,4.62
2019-04-13T00:04:45.769Z,4.52
2019-04-13T00:06:51.204Z,4.50
2019-04-13T00:08:52.610Z,4.46
2019-04-13T00:10:58.525Z,4.42
2019-04-13T00:12:59.962Z,4.36
2019-04-13T00:15:01.464Z,4.44
2019-04-13T00:17:04.339Z,4.45
2019-04-13T00:19:05.778Z,4.60
2019-04-13T00:21:07.176Z,4.47
2019-04-13T00:23:08.564Z,4.57
2019-04-13T00:25:10.084Z,4.47
2019-04-13T00:27:11.537Z,4.52
2019-04-13T00:29:12.920Z,4.44
2019-04-13T00:31:14.365Z,4.30
2019-04-13T00:33:15.745Z,4.53
2019-04-13T00:35:17.154Z,4.42
2019-04-13T00:37:18.606Z,4.36
2019-04-13T00:39:20.001Z,4.47
2019-04-13T00:41:21.450Z,4.37
2019-04-13T00:43:22.941Z,4.38
2019-04-13T00:45:24.334Z,4.46
2019-04-13T00:47:25.949Z,4.37
2019-04-13T00:49:27.350Z,4.45
2019-04-13T00:51:28.732Z,4.57
2019-04-13T00:53:30.176Z,4.37
2019-04-13T00:55:31.575Z,4.41
2019-04-13T00:57:32.985Z,4.44
2019-04-13T00:59:34.434Z,4.32
2019-04-13T01:01:35.838Z,4.47
2019-04-13T01:03:40.499Z,4.73
2019-04-13T01:05:41.934Z,4.45
2019-04-13T01:07:43.315Z,4.52
2019-04-13T01:09:44.783Z,4.53
2019-04-13T01:11:46.193Z,4.72
2019-04-13T01:13:47.597Z,4.62
2019-04-13T01:15:49.045Z,4.47
2019-04-13T01:17:50.409Z,4.43
2019-04-13T01:19:51.856Z,4.46
2019-04-13T01:21:53.283Z,4.59
2019-04-13T01:23:54.770Z,4.68
2019-04-13T01:25:56.190Z,4.54
2019-04-13T01:27:57.623Z,4.46
2019-04-13T01:29:59.006Z,4.38
2019-04-13T01:32:00.419Z,4.52
2019-04-13T01:34:02.047Z,4.75
2019-04-13T01:36:03.440Z,4.61
2019-04-13T01:38:04.844Z,4.59
2019-04-13T01:40:06.491Z,4.55
2019-04-13T01:42:07.870Z,4.43
2019-04-13T01:44:09.290Z,4.51
2019-04-13T01:46:10.721Z,4.41
2019-04-13T01:48:12.630Z,4.37
2019-04-13T01:50:14.470Z,4.46
2019-04-13T01:52:15.883Z,4.26
2019-04-13T01:54:17.277Z,4.33
2019-04-13T01:56:18.730Z,4.49
2019-04-13T01:58:20.181Z,4.45
2019-04-13T02:00:29.468Z,4.44
2019-04-13T02:02:38.394Z,4.63
2019-04-13T02:04:44.617Z,4.56
2019-04-13T02:07:06.017Z,4.41
2019-04-13T02:09:14.763Z,4.39
2019-04-13T02:11:18.060Z,4.41
2019-04-13T02:13:19.505Z,4.37
2019-04-13T02:15:20.901Z,4.41
2019-04-13T02:17:22.290Z,4.49
2019-04-13T02:19:23.791Z,4.37
2019-04-13T02:21:25.214Z,4.36
2019-04-13T02:23:26.653Z,4.33
2019-04-13T02:25:28.078Z,4.34
2019-04-13T02:27:29.463Z,4.39
2019-04-13T02:29:30.875Z,4.34
2019-04-13T02:31:32.300Z,4.56
2019-04-13T02:33:33.965Z,4.41
2019-04-13T02:35:36.735Z,4.63
2019-04-13T02:37:38.433Z,4.58
2019-04-13T02:39:39.911Z,4.29
2019-04-13T02:41:41.458Z,4.32
2019-04-13T02:43:42.867Z,4.33
2019-04-13T02:45:44.245Z,4.29
2019-04-13T02:47:45.677Z,4.60
2019-04-13T02:49:47.120Z,4.60
2019-04-13T02:51:48.541Z,4.57
2019-04-13T02:53:49.941Z,4.77
2019-04-13T02:55:51.359Z,4.66
2019-04-13T02:57:52.764Z,4.36
2019-04-13T02:59:54.254Z,4.22
2019-04-13T03:01:56.034Z,4.54
2019-04-13T03:03:57.508Z,4.22
2019-04-13T03:05:58.889Z,4.40
2019-04-13T03:08:00.360Z,4.43
2019-04-13T03:10:04.766Z,4.55
2019-04-13T03:12:06.172Z,4.43
2019-04-13T03:14:07.793Z,4.30
2019-04-13T03:16:11.203Z,4.35
2019-04-13T03:18:14.510Z,4.54
2019-04-13T03:20:23.832Z,4.37
2019-04-13T03:22:25.224Z,4.08
2019-04-13T03:24:26.644Z,4.17
2019-04-13T03:26:28.026Z,4.37
2019-04-13T03:28:29.473Z,4.01
2019-04-13T03:32:56.740Z,4.05
2019-04-13T03:35:17.985Z,3.77
2019-04-13T03:37:39.281Z,3.95
2019-04-13T03:40:00.551Z,3.99
2019-04-13T03:42:22.115Z,3.95
2019-04-13T03:44:43.513Z,3.66
2019-04-13T03:47:04.874Z,3.77
2019-04-13T03:49:26.144Z,3.94
2019-04-13T03:51:47.401Z,3.58
2019-04-13T03:54:08.909Z,3.70
2019-04-13T03:56:50.041Z,3.62
2019-04-13T03:59:11.351Z,3.56
2019-04-13T04:01:32.615Z,3.46
2019-04-13T04:03:53.923Z,3.98
2019-04-13T04:06:15.248Z,4.12
2019-04-13T04:08:30.074Z,3.71
2019-04-13T04:10:51.568Z,3.93
2019-04-13T04:13:12.839Z,3.61
2019-04-13T04:15:34.094Z,4.00
2019-04-13T04:17:55.393Z,3.68
2019-04-13T04:20:16.674Z,3.88
2019-04-13T04:22:37.963Z,3.51
2019-04-13T04:24:59.259Z,3.78
2019-04-13T04:27:20.603Z,3.95
2019-04-13T04:29:22.007Z,3.94
2019-04-13T04:31:43.395Z,3.67
2019-04-13T04:34:04.695Z,3.77
2019-04-13T04:36:26.075Z,3.92
2019-04-13T04:38:47.407Z,3.96
2019-04-13T04:41:08.687Z,3.61
2019-04-13T04:43:29.963Z,3.88
2019-04-13T04:45:51.562Z,3.83
2019-04-13T04:50:07.338Z,3.41
2019-04-13T04:52:28.627Z,3.41
2019-04-13T04:54:49.872Z,3.95
2019-04-13T04:57:11.186Z,3.82
2019-04-13T04:59:32.440Z,3.91
2019-04-13T05:01:53.696Z,3.73
2019-04-13T05:04:15.008Z,3.96
2019-04-13T05:06:36.355Z,3.63
2019-04-13T05:09:20.085Z,4.05
2019-04-13T05:14:52.764Z,3.84
2019-04-13T05:20:58.252Z,4.09
2019-04-13T05:23:19.142Z,4.13
2019-04-13T05:25:41.118Z,3.78
2019-04-13T05:28:38.730Z,4.09
2019-04-13T05:31:11.709Z,4.22
2019-04-13T05:34:13.510Z,4.28
2019-04-13T05:36:19.168Z,4.20
2019-04-13T05:38:25.295Z,4.37
2019-04-13T05:41:09.887Z,4.19
2019-04-13T05:46:40.564Z,4.23
2019-04-13T05:58:12.153Z,4.04
2019-04-13T06:01:29.798Z,4.01
2019-04-13T06:25:38.834Z,4.76
2019-04-13T06:31:43.812Z,4.33
2019-04-13T06:34:30.190Z,4.97
2019-04-13T06:36:52.515Z,4.79
2019-04-13T06:42:45.441Z,5.02
2019-04-13T06:45:27.431Z,5.07
2019-04-13T06:48:23.690Z,5.11
2019-04-13T06:56:34.738Z,5.37
2019-04-13T06:58:58.334Z,5.50
2019-04-13T07:01:39.608Z,5.99
2019-04-13T07:04:01.365Z,5.99
2019-04-13T07:06:22.840Z,5.94
2019-04-13T07:09:04.608Z,5.97
2019-04-13T07:11:46.225Z,5.61
2019-04-13T07:19:48.889Z,6.13
2019-04-13T07:22:12.525Z,5.78
2019-04-13T07:24:34.757Z,6.06
2019-04-13T07:26:56.686Z,5.79
2019-04-13T07:29:18.300Z,5.88
2019-04-13T07:31:40.151Z,6.19
2019-04-13T07:34:01.748Z,6.47
2019-04-13T07:36:03.443Z,6.30
2019-04-13T07:38:25.133Z,6.61
2019-04-13T07:40:49.120Z,6.84
2019-04-13T07:43:23.526Z,6.51
2019-04-13T07:46:05.330Z,6.64
2019-04-13T07:48:49.701Z,6.60
2019-04-13T07:57:05.402Z,6.75
2019-04-13T07:59:48.119Z,6.95
2019-04-13T08:02:30.187Z,7.14
2019-04-13T08:04:52.093Z,7.45
2019-04-13T08:07:14.054Z,7.40
2019-04-13T08:09:35.575Z,7.63
2019-04-13T08:11:56.963Z,7.75
2019-04-13T08:20:33.977Z,7.49
2019-04-13T08:23:14.800Z,7.83
2019-04-13T08:25:16.465Z,8.01
2019-04-13T08:27:18.701Z,7.81
2019-04-13T08:29:21.106Z,7.88
2019-04-13T08:31:26.445Z,8.19
2019-04-13T08:33:28.651Z,8.24
2019-04-13T08:35:30.422Z,8.11
2019-04-13T08:37:33.662Z,7.86
2019-04-13T08:39:36.854Z,8.34
2019-04-13T08:41:38.749Z,8.33
2019-04-13T08:43:40.456Z,8.59
2019-04-13T08:45:44.220Z,8.16
2019-04-13T08:47:47.123Z,8.63
2019-04-13T08:49:48.739Z,8.50
2019-04-13T08:51:51.063Z,8.62
2019-04-13T08:53:52.934Z,8.60
2019-04-13T08:55:54.419Z,8.57
2019-04-13T08:57:56.669Z,8.72
2019-04-13T08:59:58.193Z,8.43
2019-04-13T09:01:59.617Z,8.11
2019-04-13T09:04:00.987Z,8.51
2019-04-13T09:06:02.352Z,8.53
2019-04-13T09:08:03.878Z,8.65
2019-04-13T09:10:07.124Z,8.98
2019-04-13T09:12:11.417Z,9.22
2019-04-13T09:14:14.086Z,8.80
2019-04-13T09:16:15.299Z,9.01
2019-04-13T09:18:35.004Z,9.17
2019-04-13T09:20:38.795Z,9.53
2019-04-13T09:22:41.970Z,9.38
2019-04-13T09:24:43.429Z,9.42
2019-04-13T09:26:44.825Z,9.70
2019-04-13T09:28:46.221Z,9.46
2019-04-13T09:30:47.594Z,9.45
2019-04-13T09:32:49.002Z,9.67
2019-04-13T09:34:50.398Z,9.65
2019-04-13T09:36:51.809Z,9.83
2019-04-13T09:38:54.113Z,9.65
2019-04-13T09:40:55.477Z,9.58
2019-04-13T09:42:57.886Z,9.49
2019-04-13T09:45:03.437Z,9.48
2019-04-13T09:47:06.336Z,9.32
2019-04-13T09:49:08.012Z,9.34
2019-04-13T09:51:09.376Z,9.52
2019-04-13T09:53:10.769Z,9.90
2019-04-13T09:55:15.675Z,9.91
2019-04-13T09:57:15.587Z,9.92
2019-04-13T09:59:16.943Z,10.06
2019-04-13T10:01:18.320Z,10.15
2019-04-13T10:03:19.749Z,9.80
2019-04-13T10:05:21.135Z,9.83
2019-04-13T10:07:22.522Z,10.12
2019-04-13T10:09:23.916Z,10.24
2019-04-13T10:11:30.436Z,9.79
2019-04-13T10:13:39.373Z,9.64
2019-04-13T10:15:48.805Z,9.82
2019-04-13T10:17:55.548Z,9.96
2019-04-13T10:19:56.914Z,10.11
2019-04-13T10:21:58.284Z,10.00
2019-04-13T10:23:59.693Z,10.14
2019-04-13T10:26:01.079Z,10.42
2019-04-13T10:28:02.441Z,10.69
2019-04-13T10:30:04.786Z,10.62
2019-04-13T10:32:06.339Z,10.61
2019-04-13T10:34:07.904Z,10.60
2019-04-13T10:36:09.320Z,10.70
2019-04-13T10:38:10.711Z,10.72
2019-04-13T10:40:14.760Z,10.83
2019-04-13T10:42:15.546Z,10.65
2019-04-13T10:44:17.516Z,10.68
2019-04-13T10:46:29.563Z,10.85
2019-04-13T10:48:35.739Z,10.95
2019-04-13T10:50:39.042Z,10.43
2019-04-13T10:52:40.415Z,10.43
2019-04-13T10:54:41.820Z,10.32
2019-04-13T10:56:43.213Z,10.43
2019-04-13T10:58:44.583Z,10.31
2019-04-13T11:00:45.984Z,10.37
2019-04-13T11:02:47.394Z,10.27
2019-04-13T11:04:48.758Z,10.06
2019-04-13T11:06:52.626Z,10.06
2019-04-13T11:08:53.453Z,10.21
2019-04-13T11:10:54.842Z,10.33
2019-04-13T11:12:56.234Z,10.25
2019-04-13T11:14:57.643Z,10.26
2019-04-13T11:16:59.262Z,9.82
2019-04-13T11:19:00.636Z,10.10
2019-04-13T11:21:02.886Z,10.10
2019-04-13T11:23:04.358Z,10.20
2019-04-13T11:25:06.257Z,10.40
2019-04-13T11:27:08.263Z,10.34
2019-04-13T11:29:11.267Z,10.34
2019-04-13T11:31:12.933Z,10.22
2019-04-13T11:33:14.334Z,10.32
2019-04-13T11:35:15.708Z,10.70
2019-04-13T11:37:17.136Z,10.57
2019-04-13T11:39:18.643Z,10.57
2019-04-13T11:41:38.485Z,10.32
2019-04-13T11:43:58.120Z,10.42
2019-04-13T11:46:04.046Z,10.41
2019-04-13T11:48:07.318Z,10.40
2019-04-13T11:50:10.929Z,10.42
2019-04-13T11:52:12.311Z,10.49
2019-04-13T11:54:13.748Z,10.41
2019-04-13T11:56:15.261Z,10.65
2019-04-13T11:58:16.640Z,11.02
2019-04-13T12:00:37.724Z,10.77
2019-04-13T12:02:41.040Z,10.70
2019-04-13T12:04:44.344Z,10.57
2019-04-13T12:07:04.238Z,10.48
2019-04-13T12:09:19.403Z,10.53
2019-04-13T12:11:25.336Z,10.31
2019-04-13T12:13:31.753Z,10.46
2019-04-13T12:15:38.803Z,10.25
2019-04-13T12:17:52.006Z,10.18
2019-04-13T12:20:01.374Z,10.04
2019-04-13T12:22:04.744Z,10.18
2019-04-13T12:24:08.142Z,10.26
2019-04-13T12:26:09.519Z,10.48
2019-04-13T12:28:10.945Z,10.76
2019-04-13T12:30:23.511Z,10.73
2019-04-13T12:32:26.696Z,10.82
2019-04-13T12:34:28.104Z,10.82
2019-04-13T12:36:29.517Z,10.60
2019-04-13T12:38:31.116Z,10.86
2019-04-13T12:40:34.906Z,10.97
2019-04-13T12:42:36.494Z,10.97
2019-04-13T12:44:38.403Z,11.05
2019-04-13T12:46:40.035Z,10.63
2019-04-13T12:48:41.399Z,10.74
2019-04-13T12:50:42.875Z,11.22
2019-04-13T12:52:44.294Z,11.27
2019-04-13T12:54:46.010Z,11.40
2019-04-13T12:56:47.670Z,10.64
2019-04-13T12:58:49.641Z,10.93
2019-04-13T13:00:59.043Z,11.49
2019-04-13T13:02:59.763Z,11.60
2019-04-13T13:05:03.433Z,11.40
2019-04-13T13:07:06.662Z,11.60
2019-04-13T13:09:13.543Z,11.48
2019-04-13T13:11:13.310Z,11.37
2019-04-13T13:13:14.659Z,11.24
2019-04-13T13:15:16.369Z,11.26
2019-04-13T13:17:18.453Z,11.19
2019-04-13T13:19:21.133Z,11.21
2019-04-13T13:21:22.538Z,11.42
2019-04-13T13:23:23.967Z,11.48
2019-04-13T13:25:25.496Z,11.38
2019-04-13T13:27:26.912Z,11.50
2019-04-13T13:29:28.285Z,11.55
2019-04-13T13:31:29.976Z,11.68
2019-04-13T13:33:31.370Z,11.79
2019-04-13T13:35:32.951Z,11.61
2019-04-13T13:37:34.463Z,11.51
2019-04-13T13:39:35.930Z,11.48
2019-04-13T13:41:37.305Z,11.26
2019-04-13T13:43:38.704Z,11.30
2019-04-13T13:45:40.244Z,11.11
2019-04-13T13:47:41.707Z,11.04
2019-04-13T13:49:43.175Z,11.20
2019-04-13T13:51:55.575Z,11.32
2019-04-13T13:53:47.854Z,11.38
2019-04-13T13:55:49.251Z,11.15
2019-04-13T13:57:52.539Z,11.46
2019-04-13T13:59:53.936Z,11.51
2019-04-13T14:01:57.471Z,11.63
2019-04-13T14:03:58.842Z,11.63
2019-04-13T14:06:00.216Z,11.50
2019-04-13T14:08:03.836Z,11.24
2019-04-13T14:10:14.818Z,11.25
2019-04-13T14:12:16.199Z,10.77
2019-04-13T14:14:17.571Z,10.98
2019-04-13T14:16:18.985Z,11.15
2019-04-13T14:18:20.392Z,11.30
2019-04-13T14:20:21.780Z,11.22
2019-04-13T14:22:23.193Z,11.00
2019-04-13T14:24:24.610Z,11.11
2019-04-13T14:26:26.080Z,11.16
2019-04-13T14:28:27.458Z,11.08
2019-04-13T14:30:28.860Z,10.88
2019-04-13T14:32:30.631Z,10.98
2019-04-13T14:34:32.002Z,10.91
2019-04-13T14:36:35.581Z,11.15
2019-04-13T14:38:36.798Z,10.88
2019-04-13T14:40:38.759Z,11.11
2019-04-13T14:42:40.717Z,11.22
2019-04-13T14:44:42.082Z,10.87
2019-04-13T14:46:43.468Z,11.20
2019-04-13T14:48:44.874Z,11.21
2019-04-13T14:50:46.281Z,11.09
2019-04-13T14:52:47.803Z,11.16
2019-04-13T14:54:50.088Z,10.96
2019-04-13T14:56:51.555Z,11.05
2019-04-13T14:58:53.171Z,10.95
2019-04-13T15:00:54.552Z,11.05
2019-04-13T15:02:55.949Z,10.64
2019-04-13T15:04:57.346Z,10.86
2019-04-13T15:06:58.789Z,10.76
2019-04-13T15:09:00.182Z,10.57
2019-04-13T15:11:16.583Z,10.26
2019-04-13T15:13:04.900Z,10.51
2019-04-13T15:15:07.208Z,10.74
2019-04-13T15:17:09.835Z,10.74
2019-04-13T15:19:28.207Z,10.77
2019-04-13T15:21:20.241Z,10.46
2019-04-13T15:23:21.639Z,10.24
2019-04-13T15:25:23.116Z,10.49
2019-04-13T15:27:25.085Z,10.41
2019-04-13T15:29:30.297Z,10.33
2019-04-13T15:31:31.802Z,10.79
2019-04-13T15:33:33.226Z,10.84
2019-04-13T15:35:34.760Z,10.92
2019-04-13T15:37:41.889Z,10.66
2019-04-13T15:39:43.618Z,10.85
2019-04-13T15:41:57.453Z,10.52
2019-04-13T15:43:48.465Z,10.44
2019-04-13T15:45:51.021Z,10.40
2019-04-13T15:47:53.168Z,10.50
2019-04-13T15:49:54.618Z,10.59
2019-04-13T15:51:57.143Z,10.57
2019-04-13T15:54:02.024Z,10.39
2019-04-13T15:56:02.495Z,10.50
2019-04-13T15:58:04.451Z,10.42
2019-04-13T16:00:06.820Z,10.25
2019-04-13T16:02:08.269Z,10.56
2019-04-13T16:04:09.673Z,10.26
2019-04-13T16:06:11.053Z,10.12
2019-04-13T16:08:13.580Z,10.02
2019-04-13T16:10:19.998Z,10.17
2019-04-13T16:12:25.931Z,10.26
2019-04-13T16:14:27.337Z,10.28
2019-04-13T16:16:31.474Z,10.43
2019-04-13T16:18:32.523Z,10.04
2019-04-13T16:20:33.975Z,10.11
2019-04-13T16:22:36.494Z,9.98
2019-04-13T16:24:37.952Z,9.76
2019-04-13T16:26:39.326Z,9.81
2019-04-13T16:28:46.150Z,9.72
2019-04-13T16:31:05.325Z,9.98
2019-04-13T16:33:15.194Z,9.67
2019-04-13T16:35:28.643Z,9.71
2019-04-13T16:37:32.097Z,9.75
2019-04-13T16:39:34.740Z,9.58
2019-04-13T16:41:36.271Z,9.52
2019-04-13T16:43:40.864Z,9.52
2019-04-13T16:45:44.443Z,9.50
2019-04-13T16:47:47.725Z,9.70
2019-04-13T16:49:51.039Z,9.52
2019-04-13T16:51:57.027Z,9.71
2019-04-13T16:54:02.031Z,9.81
2019-04-13T16:56:23.020Z,9.36
2019-04-13T16:58:26.412Z,9.38
2019-04-13T17:00:47.493Z,9.65
2019-04-13T17:02:54.690Z,9.40
2019-04-13T17:04:58.753Z,9.57
2019-04-13T17:07:01.209Z,9.63
2019-04-13T17:09:04.286Z,9.49
2019-04-13T17:11:06.932Z,9.54
2019-04-13T17:13:09.580Z,9.21
2019-04-13T17:15:11.222Z,9.22
2019-04-13T17:17:13.541Z,8.98
2019-04-13T17:19:26.217Z,9.02
2019-04-13T17:21:33.516Z,8.87
2019-04-13T17:23:46.344Z,8.95
2019-04-13T17:25:49.893Z,8.82
2019-04-13T17:28:05.988Z,8.72
2019-04-13T17:30:13.256Z,8.81
2019-04-13T17:32:22.798Z,8.79
2019-04-13T17:34:26.171Z,8.54
2019-04-13T17:36:27.694Z,8.52
2019-04-13T17:38:29.374Z,8.77
2019-04-13T17:40:32.647Z,8.73
2019-04-13T17:42:53.332Z,8.87
2019-04-13T17:45:02.756Z,8.63
2019-04-13T17:47:10.084Z,8.58
2019-04-13T17:49:23.356Z,8.66
2019-04-13T17:51:35.766Z,8.40
2019-04-13T17:53:45.261Z,8.48
2019-04-13T17:55:55.595Z,8.55
2019-04-13T17:58:02.571Z,8.33
2019-04-13T18:00:10.196Z,8.29
2019-04-13T18:02:30.227Z,8.30
2019-04-13T18:04:37.310Z,8.20
2019-04-13T18:06:57.162Z,8.29
2019-04-13T18:09:01.873Z,8.26
2019-04-13T18:11:08.848Z,8.28
2019-04-13T18:13:12.299Z,8.39
2019-04-13T18:15:18.806Z,8.40
2019-04-13T18:17:24.773Z,8.19
2019-04-13T18:19:26.215Z,8.17
2019-04-13T18:21:28.520Z,8.08
2019-04-13T18:23:29.971Z,8.10
2019-04-13T18:25:40.408Z,7.92
2019-04-13T18:27:34.966Z,7.96
2019-04-13T18:29:36.417Z,7.94
2019-04-13T18:31:38.014Z,7.91
2019-04-13T18:33:39.421Z,8.02
2019-04-13T18:35:44.034Z,7.90
2019-04-13T18:37:45.138Z,7.89
2019-04-13T18:39:49.531Z,8.05
2019-04-13T18:41:50.591Z,8.04
2019-04-13T18:43:52.123Z,8.01
2019-04-13T18:45:53.839Z,7.75
2019-04-13T18:47:55.613Z,7.64
2019-04-13T18:49:57.389Z,7.59
2019-04-13T18:51:58.853Z,7.54
2019-04-13T18:54:00.844Z,7.59
2019-04-13T18:56:02.618Z,7.74
2019-04-13T18:58:05.461Z,7.66
2019-04-13T19:00:09.393Z,7.73
2019-04-13T19:02:11.119Z,7.59
2019-04-13T19:04:12.507Z,7.53
2019-04-13T19:06:26.318Z,7.59
2019-04-13T19:08:17.252Z,7.79
2019-04-13T19:10:18.636Z,7.66
2019-04-13T19:12:20.018Z,7.61
2019-04-13T19:14:21.520Z,7.59
2019-04-13T19:16:22.893Z,7.61
2019-04-13T19:18:24.282Z,7.52
2019-04-13T19:20:25.676Z,7.54
2019-04-13T19:22:27.057Z,7.78
2019-04-13T19:24:28.421Z,7.66
2019-04-13T19:26:29.837Z,7.74
2019-04-13T19:28:31.258Z,7.58
2019-04-13T19:30:33.470Z,7.54
2019-04-13T19:32:35.336Z,7.64
2019-04-13T19:34:36.971Z,7.59
2019-04-13T19:36:38.676Z,7.42
2019-04-13T19:38:40.588Z,7.48
2019-04-13T19:40:42.279Z,7.48
2019-04-13T19:42:43.791Z,7.42
2019-04-13T19:44:45.545Z,7.66
2019-04-13T19:46:47.298Z,7.57
2019-04-13T19:48:49.086Z,7.59
2019-04-13T19:50:50.960Z,7.44
2019-04-13T19:53:06.411Z,7.55
2019-04-13T19:55:08.724Z,7.67
2019-04-13T19:57:10.677Z,7.59
2019-04-13T19:59:12.373Z,7.39
2019-04-13T20:01:15.944Z,7.14
2019-04-13T20:03:17.990Z,7.31
2019-04-13T20:05:19.674Z,7.17
2019-04-13T20:07:21.605Z,7.14
2019-04-13T20:09:24.610Z,6.98
2019-04-13T20:11:26.224Z,6.93
2019-04-13T20:13:39.023Z,7.13
2019-04-13T20:15:31.452Z,7.26
2019-04-13T20:17:33.489Z,7.12
2019-04-13T20:19:35.255Z,6.89
2019-04-13T20:21:37.258Z,6.87
2019-04-13T20:23:39.053Z,6.68
2019-04-13T20:25:43.881Z,6.82
2019-04-13T20:27:47.754Z,6.72
2019-04-13T20:29:49.526Z,6.93
2019-04-13T20:31:51.449Z,6.83
2019-04-13T20:33:53.070Z,6.79
2019-04-13T20:36:02.937Z,6.94
2019-04-13T20:38:00.475Z,6.87
2019-04-13T20:40:09.919Z,6.70
2019-04-13T20:42:18.198Z,6.83
2019-04-13T20:44:17.913Z,6.65
2019-04-13T20:46:19.276Z,6.48
2019-04-13T20:48:22.916Z,6.52
2019-04-13T20:50:25.239Z,6.54
2019-04-13T20:52:28.922Z,6.45
2019-04-13T20:54:31.048Z,6.44
2019-04-13T20:56:34.022Z,6.45
2019-04-13T20:58:35.938Z,6.43
2019-04-13T21:00:37.811Z,6.25
2019-04-13T21:02:39.683Z,6.13
2019-04-13T21:04:41.744Z,6.10
2019-04-13T21:06:43.990Z,6.27
2019-04-13T21:08:45.829Z,6.48
2019-04-13T21:10:47.928Z,6.27
2019-04-13T21:12:49.765Z,6.17
2019-04-13T21:14:52.188Z,6.12
2019-04-13T21:16:56.025Z,6.04
2019-04-13T21:18:58.128Z,5.97
2019-04-13T21:21:00.022Z,5.85
2019-04-13T21:23:01.813Z,6.05
2019-04-13T21:25:05.643Z,5.94
2019-04-13T21:27:07.493Z,5.91
2019-04-13T21:29:11.324Z,5.90
2019-04-13T21:31:13.179Z,5.92
2019-04-13T21:33:16.902Z,5.98
2019-04-13T21:35:18.876Z,6.17
2019-04-13T21:37:20.709Z,6.01
2019-04-13T21:39:22.521Z,6.03
2019-04-13T21:41:24.540Z,6.26
2019-04-13T21:43:26.248Z,6.12
2019-04-13T21:45:29.563Z,6.12
2019-04-13T21:47:31.372Z,6.01
2019-04-13T21:49:33.972Z,6.07
2019-04-13T21:51:44.469Z,6.16
2019-04-13T21:53:48.483Z,6.27
2019-04-13T21:55:50.494Z,6.13
2019-04-13T21:57:52.266Z,6.20
2019-04-13T21:59:54.130Z,6.11
2019-04-13T22:02:04.897Z,6.19
2019-04-13T22:04:08.747Z,6.17
2019-04-13T22:06:10.743Z,6.22
2019-04-13T22:08:12.670Z,6.27
2019-04-13T22:10:15.758Z,6.30
2019-04-13T22:12:17.887Z,6.32
2019-04-13T22:14:32.553Z,6.25
2019-04-13T22:16:23.791Z,6.35
2019-04-13T22:18:25.803Z,6.33
2019-04-13T22:20:29.722Z,6.30
2019-04-13T22:22:34.227Z,6.24
2019-04-13T22:24:35.959Z,6.22
2019-04-13T22:26:37.587Z,6.21
2019-04-13T22:28:41.134Z,6.24
2019-04-13T22:30:47.809Z,6.31
2019-04-13T22:32:50.123Z,6.36
2019-04-13T22:34:58.712Z,6.32
2019-04-13T22:37:01.582Z,6.43
2019-04-13T22:39:06.017Z,6.41
2019-04-13T22:41:08.961Z,6.42
2019-04-13T22:43:11.182Z,6.21
2019-04-13T22:45:15.227Z,6.31
2019-04-13T22:47:19.357Z,6.27
2019-04-13T22:49:25.937Z,6.23
2019-04-13T22:51:31.618Z,6.35
2019-04-13T22:53:39.477Z,6.24
2019-04-13T22:55:43.062Z,6.20
2019-04-13T22:57:48.438Z,6.39
2019-04-13T22:59:50.812Z,6.25
2019-04-13T23:02:03.787Z,6.38
2019-04-13T23:04:05.974Z,6.32
2019-04-13T23:06:07.848Z,6.34
2019-04-13T23:08:09.589Z,6.36
2019-04-13T23:10:11.686Z,6.46
2019-04-13T23:12:15.949Z,6.41
2019-04-13T23:14:17.905Z,6.31
2019-04-13T23:16:19.797Z,6.38
2019-04-13T23:18:21.801Z,6.33
2019-04-13T23:20:23.642Z,6.34
2019-04-13T23:22:25.573Z,6.44
2019-04-13T23:24:29.983Z,6.41
2019-04-13T23:26:31.890Z,6.29
2019-04-13T23:28:33.810Z,6.37
2019-04-13T23:30:35.915Z,6.28
2019-04-13T23:32:40.161Z,6.40
2019-04-13T23:34:42.212Z,6.44
2019-04-13T23:36:44.399Z,6.42
2019-04-13T23:38:46.496Z,6.44
2019-04-13T23:40:51.132Z,6.42
2019-04-13T23:42:52.966Z,6.27
2019-04-13T23:45:09.101Z,6.27
2019-04-13T23:46:59.057Z,6.32
2019-04-13T23:49:01.316Z,6.20
2019-04-13T23:51:03.505Z,6.18
2019-04-13T23:53:05.525Z,6.08
2019-04-13T23:55:09.758Z,6.19
2019-04-13T23:57:29.291Z,6.22
2019-04-13T23:59:50.250Z,6.23
